Time;durP1;ratioP1;P1;durP2;ratioP2;P2;SDS_P1;SDS_P2;PMS_P1;PMS_P2;Temp;Humidity;BMP_temperature;BMP_pressure;BME280_temperature;BME280_humidity;BME280_pressure;Samples;Min_cycle;Max_cycle;Signal;HPM_P1;HPM_P2
2023/03/17 00:06:36;;;;;;;188.80;171.25;;;;;;;21.72;45.50;101205.97;20513576;28;20054;-78
2023/03/17 00:16:41;;;;;;;179.70;163.20;;;;;;;21.68;45.38;101207.13;20518327;28;20055;-78
2023/03/17 00:26:42;;;;;;;179.05;162.57;;;;;;;21.70;45.27;101197.34;20517150;28;20046;-78
2023/03/17 00:36:47;;;;;;;195.85;177.63;;;;;;;21.64;45.64;101191.63;20510391;28;20093;-78
2023/03/17 00:46:47;;;;;;;180.38;163.55;;;;;;;21.63;45.38;101190.78;20510965;28;20170;-78
2023/03/17 00:56:49;;;;;;;174.13;158.32;;;;;;;21.62;45.07;101181.19;20510581;28;20043;-77
2023/03/17 01:06:51;;;;;;;171.82;156.20;;;;;;;21.57;45.34;101184.13;20501560;28;20498;-76
2023/03/17 01:16:53;;;;;;;188.97;171.47;;;;;;;21.54;45.09;101180.81;20505295;28;20582;-76
2023/03/17 01:26:54;;;;;;;178.47;162.23;;;;;;;21.52;44.89;101188.84;20509617;28;20043;-75
2023/03/17 01:36:54;;;;;;;183.63;166.63;;;;;;;21.50;45.24;101185.44;20529028;28;20051;-78
2023/03/17 01:46:55;;;;;;;184.38;167.43;;;;;;;21.49;45.05;101194.28;20496666;28;20061;-74
2023/03/17 01:57:02;;;;;;;177.35;161.23;;;;;;;21.47;44.85;101187.44;20505966;28;20469;-78
2023/03/17 02:07:03;;;;;;;175.30;159.02;;;;;;;21.44;44.94;101188.50;20507616;28;20500;-77
2023/03/17 02:17:05;;;;;;;183.48;166.57;;;;;;;21.44;45.08;101207.78;20520548;28;20043;-75
2023/03/17 02:27:30;;;;;;;171.40;155.57;;;;;;;21.37;44.88;101232.00;20517787;28;20084;-76
2023/03/17 02:37:30;;;;;;;189.02;171.57;;;;;;;21.38;44.60;101231.88;20517674;28;20928;-78
2023/03/17 02:47:31;;;;;;;180.93;164.15;;;;;;;21.35;44.63;101228.59;20521532;28;20182;-77
2023/03/17 02:57:31;;;;;;;176.10;160.30;;;;;;;21.33;44.67;101222.59;20516614;28;20043;-78
2023/03/17 03:07:32;;;;;;;176.93;160.70;;;;;;;21.29;44.36;101224.59;20513652;28;20118;-78
2023/03/17 03:17:32;;;;;;;176.73;160.73;;;;;;;21.28;44.93;101218.47;20509115;28;20061;-76
2023/03/17 03:27:33;;;;;;;168.65;153.48;;;;;;;21.27;44.67;101223.84;20518994;28;20114;-74
2023/03/17 03:37:33;;;;;;;157.85;143.75;;;;;;;21.22;44.71;101229.41;20515231;28;20061;-77
2023/03/17 03:47:34;;;;;;;151.23;137.90;;;;;;;21.22;44.73;101216.22;20513845;28;20074;-78
2023/03/17 03:57:35;;;;;;;169.80;154.50;;;;;;;21.19;44.79;101226.13;20515231;28;20095;-77
2023/03/17 04:07:35;;;;;;;167.82;152.52;;;;;;;21.16;44.68;101211.34;20495088;28;20058;-77
2023/03/17 04:17:36;;;;;;;160.15;145.95;;;;;;;21.16;44.37;101208.72;20512213;28;20102;-77
2023/03/17 04:27:37;;;;;;;162.35;148.05;;;;;;;21.13;44.26;101211.56;20505767;28;20085;-77
2023/03/17 04:37:37;;;;;;;177.70;161.27;;;;;;;21.09;44.36;101213.56;20514324;28;21243;-78
2023/03/17 04:47:38;;;;;;;172.18;156.63;;;;;;;21.05;44.51;101212.03;20513880;28;20220;-78
2023/03/17 04:57:38;;;;;;;171.70;156.20;;;;;;;21.04;44.03;101233.22;20509217;28;20105;-77
2023/03/17 05:07:40;;;;;;;178.52;161.98;;;;;;;21.02;44.59;101233.31;20508640;28;20427;-78
2023/03/17 05:17:41;;;;;;;203.85;185.10;;;;;;;21.18;43.90;101235.81;20502049;28;20075;-78
2023/03/17 05:27:42;;;;;;;178.32;161.95;;;;;;;21.30;44.96;101244.72;20498689;28;20051;-78
2023/03/17 05:37:42;;;;;;;182.57;165.63;;;;;;;21.44;46.11;101249.94;20489029;28;20051;-79
2023/03/17 05:47:44;;;;;;;182.13;165.15;;;;;;;21.54;46.06;101255.44;20501895;28;20049;-78
2023/03/17 05:57:46;;;;;;;190.13;172.57;;;;;;;21.62;46.15;101249.72;20527739;28;20069;-79
2023/03/17 06:07:46;;;;;;;181.68;164.70;;;;;;;21.68;46.05;101254.59;20506307;28;20038;-76
2023/03/17 06:17:47;;;;;;;176.27;159.60;;;;;;;21.72;45.51;101245.50;20510421;28;20285;-78
2023/03/17 06:27:51;;;;;;;185.52;168.23;;;;;;;21.70;43.98;101263.25;20518103;28;20610;-76
2023/03/17 06:37:52;;;;;;;166.20;150.43;;;;;;;21.53;39.89;101269.59;20504090;28;20054;-75
2023/03/17 06:47:54;;;;;;;163.35;148.30;;;;;;;21.72;42.85;101276.31;20510632;28;20070;-73
2023/03/17 06:57:54;;;;;;;169.68;154.05;;;;;;;21.79;43.71;101276.75;20499248;28;20047;-76
2023/03/17 07:07:55;;;;;;;162.27;147.45;;;;;;;21.82;44.47;101282.66;20516767;28;20054;-77
2023/03/17 07:17:55;;;;;;;170.15;154.50;;;;;;;21.89;44.62;101304.22;20518048;28;20062;-73
2023/03/17 07:27:56;;;;;;;162.50;147.07;;;;;;;21.91;44.76;101297.06;20503601;28;20055;-75
2023/03/17 07:37:56;;;;;;;178.05;158.98;;;;;;;21.96;44.18;101299.38;20505637;28;20043;-71
2023/03/17 07:47:56;;;;;;;177.35;160.25;;;;;;;21.96;43.06;101291.44;20496372;28;20042;-72
2023/03/17 07:57:57;;;;;;;171.38;154.75;;;;;;;21.99;44.12;101297.38;20505752;28;20058;-76
2023/03/17 08:07:58;;;;;;;172.35;155.82;;;;;;;22.02;44.20;101291.03;20512359;28;20062;-76
2023/03/17 08:17:59;;;;;;;154.65;140.07;;;;;;;22.05;44.06;101285.56;20504924;28;20043;-76
2023/03/17 08:28:00;;;;;;;174.65;157.80;;;;;;;22.09;44.17;101281.78;20495904;28;20050;-74
2023/03/17 08:38:01;;;;;;;186.65;168.45;;;;;;;22.11;44.46;101273.78;20506510;28;20050;-72
2023/03/17 08:58:38;;;;;;;169.68;153.52;;;;;;;22.08;41.76;101282.72;20506387;28;20773;-76
2023/03/17 09:08:43;;;;;;;181.00;163.65;;;;;;;21.99;40.30;101273.63;20509282;28;20134;-75
2023/03/17 09:18:45;;;;;;;174.23;158.35;;;;;;;21.52;31.83;101272.31;20511408;28;20078;-73
2023/03/17 09:28:45;;;;;;;155.68;141.50;;;;;;;21.69;34.05;101271.22;20523950;28;20051;-73
2023/03/17 09:38:46;;;;;;;168.68;153.23;;;;;;;21.75;35.51;101261.16;20525015;28;20536;-76
2023/03/17 09:49:19;;;;;;;136.30;124.45;;;;;;;21.72;35.13;101263.13;20525414;28;20433;-77
2023/03/17 09:59:39;;;;;;;167.05;151.45;;;;;;;21.79;35.07;101247.75;20520656;28;20055;-79
2023/03/17 10:09:53;;;;;;;169.23;153.85;;;;;;;21.82;34.57;101248.38;20518326;28;20038;-76
2023/03/17 10:20:11;;;;;;;165.55;150.70;;;;;;;21.80;32.60;101233.63;20489864;28;20059;-73
2023/03/17 10:30:19;;;;;;;159.85;145.38;;;;;;;21.80;32.09;101216.03;20514798;28;21290;-78
2023/03/17 10:40:24;;;;;;;157.32;143.32;;;;;;;21.84;32.03;101214.03;20511693;28;20031;-75
2023/03/17 10:50:36;;;;;;;244.90;221.38;;;;;;;21.89;32.08;101196.09;20512969;28;20533;-76
2023/03/17 11:00:37;;;;;;;133.45;122.28;;;;;;;21.94;31.65;101185.25;20501187;28;20051;-78
2023/03/17 11:10:40;;;;;;;141.43;129.25;;;;;;;21.97;31.32;101172.69;20516113;28;20054;-68
2023/03/17 11:21:05;;;;;;;126.88;115.82;;;;;;;21.64;24.36;101154.72;20503155;28;20046;-71
2023/03/17 11:31:11;;;;;;;209.27;189.65;;;;;;;21.37;25.02;101150.31;20496788;28;20054;-69
2023/03/17 11:41:49;;;;;;;207.95;188.43;;;;;;;21.82;30.02;101137.66;20500004;28;20042;-68
2023/03/17 11:51:59;;;;;;;216.32;195.82;;;;;;;22.03;32.41;101113.41;20500656;28;20093;-69
2023/03/17 12:02:42;;;;;;;219.13;197.77;;;;;;;22.19;34.04;101090.28;20496015;28;20561;-69
2023/03/17 12:12:53;;;;;;;206.82;187.45;;;;;;;22.34;34.41;101061.13;20301695;28;20051;-70
2023/03/17 12:23:00;;;;;;;204.90;185.20;;;;;;;22.49;35.23;101067.97;20502514;28;21160;-70
2023/03/17 12:33:03;;;;;;;187.23;169.57;;;;;;;22.57;35.22;101053.38;20491516;28;20177;-71
2023/03/17 12:43:38;;;;;;;168.65;153.25;;;;;;;22.60;34.02;101046.06;20494972;28;20093;-69
2023/03/17 12:53:41;;;;;;;197.90;179.07;;;;;;;22.71;34.79;101032.91;20500920;28;20093;-70
2023/03/17 13:04:14;;;;;;;195.07;176.35;;;;;;;22.87;35.08;101029.13;20487256;28;20050;-68
2023/03/17 13:14:26;;;;;;;164.30;148.98;;;;;;;22.88;34.79;101003.59;20441148;28;21748;-69
2023/03/17 13:24:50;;;;;;;163.43;148.60;;;;;;;22.98;35.40;100994.84;20472759;28;20055;-71
2023/03/17 13:35:14;;;;;;;164.07;148.90;;;;;;;23.03;35.69;100990.06;20500611;28;20051;-70
2023/03/17 13:45:15;;;;;;;187.93;170.02;;;;;;;23.10;35.90;100993.06;20494258;28;20035;-70
2023/03/17 13:55:22;;;;;;;190.65;172.45;;;;;;;23.20;37.07;100992.41;20490176;28;20047;-71
2023/03/17 14:05:36;;;;;;;218.77;197.43;;;;;;;23.27;37.06;100983.06;20504876;28;20066;-69
2023/03/17 14:15:46;;;;;;;263.13;235.15;;;;;;;23.34;37.83;100961.31;20511004;28;20046;-71
2023/03/17 14:25:49;;;;;;;278.90;250.70;;;;;;;23.36;38.22;100942.69;20507230;28;20145;-70
2023/03/17 14:35:50;;;;;;;;;;;;;;;23.42;38.49;100936.94;20506285;28;20110;-73
2023/03/17 14:45:57;;;;;;;285.67;256.58;;;;;;;23.47;38.83;100923.34;20506519;28;19969;-69
2023/03/17 14:55:58;;;;;;;294.70;264.33;;;;;;;23.49;38.79;100908.22;20505366;28;20054;-70
2023/03/17 15:06:23;;;;;;;291.27;261.50;;;;;;;23.54;38.74;100899.94;20514666;28;20575;-69
2023/03/17 15:16:31;;;;;;;326.77;292.48;;;;;;;23.61;38.67;100882.63;20510898;28;20143;-70
2023/03/17 15:26:31;;;;;;;379.92;340.52;;;;;;;23.67;38.52;100879.50;20508069;28;20074;-70
2023/03/17 15:36:31;;;;;;;410.42;367.80;;;;;;;23.80;38.24;100874.88;20497751;28;20386;-70
2023/03/17 15:46:32;;;;;;;519.25;468.42;;;;;;;23.66;38.42;100873.34;20509688;28;20043;-69
2023/03/17 15:56:33;;;;;;;546.65;494.05;;;;;;;23.66;38.21;100862.78;20509787;28;20047;-68
2023/03/17 16:06:34;;;;;;;588.83;533.20;;;;;;;23.55;38.14;100862.81;20509480;28;20051;-69
2023/03/17 16:16:42;;;;;;;595.67;539.83;;;;;;;23.32;38.39;100862.81;20502449;28;20071;-68
2023/03/17 16:26:42;;;;;;;585.53;530.17;;;;;;;23.20;38.66;100869.06;20511688;28;20051;-68
2023/03/17 16:36:43;;;;;;;566.90;513.30;;;;;;;23.06;39.01;100866.63;20507454;28;20050;-69
2023/03/17 16:46:44;;;;;;;479.90;432.30;;;;;;;22.42;29.98;100876.72;20488133;28;20098;-72
2023/03/17 16:56:44;;;;;;;485.60;437.98;;;;;;;22.50;33.25;100879.63;20479527;28;20057;-72
2023/03/17 17:06:45;;;;;;;454.98;409.67;;;;;;;22.52;35.22;100888.28;20495018;28;20363;-72
2023/03/17 17:16:45;;;;;;;447.57;402.80;;;;;;;22.51;36.32;100883.97;20497568;28;22001;-72
2023/03/17 17:26:47;;;;;;;444.50;400.05;;;;;;;22.49;37.53;100890.31;20501147;28;20277;-72
2023/03/17 17:36:49;;;;;;;532.50;481.87;;;;;;;22.46;38.60;100887.88;20504488;28;20467;-71
2023/03/17 17:46:52;;;;;;;521.60;471.47;;;;;;;22.45;39.25;100879.16;20521286;28;20042;-74
2023/03/17 17:56:53;;;;;;;509.98;460.48;;;;;;;22.50;40.20;100889.38;20514443;28;20512;-74
2023/03/17 18:06:54;;;;;;;505.63;456.42;;;;;;;22.54;41.21;100883.75;20522267;28;20979;-75
2023/03/17 18:16:55;;;;;;;508.00;458.65;;;;;;;22.63;42.22;100895.41;20508558;28;20054;-76
2023/03/17 18:26:58;;;;;;;505.88;456.75;;;;;;;22.65;43.31;100888.19;20519135;28;20060;-74
2023/03/17 18:37:00;;;;;;;495.70;447.00;;;;;;;22.71;43.66;100892.16;20497480;28;20059;-73
2023/03/17 18:47:01;;;;;;;523.35;472.73;;;;;;;22.80;44.51;100887.97;20509301;28;20489;-74
2023/03/17 18:57:02;;;;;;;494.88;446.17;;;;;;;22.74;44.03;100893.72;20508652;28;20055;-74
2023/03/17 19:07:04;;;;;;;480.45;433.02;;;;;;;22.71;43.75;100893.00;20505275;28;20054;-76
2023/03/17 19:17:06;;;;;;;497.63;448.90;;;;;;;22.69;43.58;100886.16;20516114;28;20066;-74
2023/03/17 19:27:07;;;;;;;491.83;443.50;;;;;;;22.65;43.30;100876.78;20480616;28;20058;-73
2023/03/17 19:37:11;;;;;;;498.30;449.85;;;;;;;22.65;42.94;100884.72;20429382;28;20184;-72
2023/03/17 19:47:12;;;;;;;487.10;439.40;;;;;;;22.64;42.55;100881.25;20419827;28;20502;-72
2023/03/17 19:57:19;;;;;;;457.35;411.60;;;;;;;22.59;42.41;100875.44;20426310;28;20048;-76
2023/03/17 20:07:20;;;;;;;463.95;417.67;;;;;;;22.53;41.33;100862.72;20428294;28;20122;-82
2023/03/17 20:17:21;;;;;;;452.58;406.92;;;;;;;22.46;41.03;100861.50;20431291;28;20055;-77
2023/03/17 20:27:23;;;;;;;490.42;442.38;;;;;;;22.40;41.90;100854.91;20435694;28;20038;-81
2023/03/17 20:37:25;;;;;;;445.50;400.87;;;;;;;22.34;41.51;100857.97;20502571;28;20095;-76
2023/03/17 20:47:34;;;;;;;460.55;414.73;;;;;;;22.28;41.99;100851.34;20521234;28;20202;-80
2023/03/17 20:57:35;;;;;;;436.27;392.27;;;;;;;22.19;42.54;100857.31;20520705;28;20063;-81
2023/03/17 21:07:36;;;;;;;437.75;393.90;;;;;;;22.21;43.27;100847.50;20522662;28;20074;-81
2023/03/17 21:17:38;;;;;;;453.70;408.58;;;;;;;22.19;43.62;100842.34;20527962;28;20130;-81
2023/03/17 21:27:39;;;;;;;443.87;399.80;;;;;;;22.17;43.49;100838.97;20506991;28;20066;-81
2023/03/17 21:37:40;;;;;;;452.17;407.35;;;;;;;22.14;43.66;100833.06;20517968;28;20054;-80
2023/03/17 21:47:41;;;;;;;458.00;412.55;;;;;;;22.12;43.39;100835.84;20517269;28;20503;-81
2023/03/17 21:57:42;;;;;;;440.17;396.52;;;;;;;22.07;43.36;100828.25;20510923;28;21304;-80
2023/03/17 22:07:42;;;;;;;421.98;379.60;;;;;;;22.05;43.15;100842.53;20511721;28;20054;-79
2023/03/17 22:17:43;;;;;;;425.67;383.27;;;;;;;22.02;43.29;100840.94;20506868;28;20059;-81
2023/03/17 22:27:45;;;;;;;408.52;367.50;;;;;;;22.01;43.21;100834.00;20510848;28;20059;-79
2023/03/17 22:37:46;;;;;;;436.23;392.80;;;;;;;21.96;43.28;100832.63;20504463;28;20051;-78
2023/03/17 22:47:47;;;;;;;421.10;379.25;;;;;;;21.93;43.23;100827.59;20519812;28;20149;-79
2023/03/17 22:57:47;;;;;;;410.17;369.58;;;;;;;21.92;43.07;100829.38;20523359;28;20050;-76
2023/03/17 23:07:49;;;;;;;442.13;398.25;;;;;;;21.89;43.39;100829.63;20514746;28;20058;-80
2023/03/17 23:17:53;;;;;;;400.67;361.20;;;;;;;21.87;43.00;100826.25;20512372;28;20047;-74
2023/03/17 23:27:53;;;;;;;395.17;356.27;;;;;;;21.82;42.99;100823.13;20522711;28;20047;-79
2023/03/17 23:37:54;;;;;;;368.55;332.42;;;;;;;21.79;42.86;100818.06;20531551;28;20585;-81
2023/03/17 23:47:56;;;;;;;391.20;352.85;;;;;;;21.78;42.63;100821.66;20526330;28;20162;-81
2023/03/17 23:57:56;;;;;;;391.23;353.07;;;;;;;21.78;42.59;100816.41;20523224;28;20458;-76
